Time;durP1;ratioP1;P1;durP2;ratioP2;P2;SDS_P1;SDS_P2;PMS_P1;PMS_P2;Temp;Humidity;BMP_temperature;BMP_pressure;BME280_temperature;BME280_humidity;BME280_pressure;Samples;Min_cycle;Max_cycle;Signal;HPM_P1;HPM_P2
2021/11/20 00:02:22;;;;;;;45.88;27.60;;;7.90;99.90;;;;;;5052462;28;20128;-80
2021/11/20 00:04:48;;;;;;;48.17;28.08;;;8.30;99.90;;;;;;5053898;28;20037;-81
2021/11/20 00:07:14;;;;;;;48.70;28.08;;;8.30;99.90;;;;;;5052830;28;20089;-81
2021/11/20 00:09:40;;;;;;;44.05;26.73;;;8.10;99.90;;;;;;5051087;28;20090;-81
2021/11/20 00:12:13;;;;;;;53.50;27.98;;;7.80;99.90;;;;;;5055458;28;20025;-81
2021/11/20 00:14:39;;;;;;;54.17;29.67;;;7.80;99.90;;;;;;5054231;28;20411;-81
2021/11/20 00:17:05;;;;;;;51.35;28.88;;;8.20;99.90;;;;;;5053899;28;20033;-81
2021/11/20 00:19:32;;;;;;;49.53;28.50;;;7.80;99.90;;;;;;5054250;28;20493;-81
2021/11/20 00:22:06;;;;;;;53.75;31.25;;;8.20;99.90;;;;;;5050056;28;20033;-81
2021/11/20 00:24:46;;;;;;;75.53;39.92;;;7.90;99.90;;;;;;5053304;28;20525;-81
2021/11/20 00:27:17;;;;;;;50.65;28.30;;;8.20;99.90;;;;;;5054542;28;20029;-81
2021/11/20 00:29:57;;;;;;;46.60;26.83;;;8.30;99.90;;;;;;5053864;28;20417;-81
2021/11/20 00:32:27;;;;;;;50.75;28.23;;;8.00;99.90;;;;;;5053620;28;20071;-81
2021/11/20 00:34:56;;;;;;;51.30;29.55;;;7.70;99.90;;;;;;5054006;28;20056;-81
2021/11/20 00:37:22;;;;;;;48.45;27.45;;;7.60;99.90;;;;;;5056476;28;20496;-81
2021/11/20 00:39:48;;;;;;;52.50;27.75;;;8.00;99.90;;;;;;5053158;28;20022;-81
2021/11/20 00:42:14;;;;;;;47.88;27.35;;;7.70;99.90;;;;;;5059466;28;20455;-80
2021/11/20 00:44:39;;;;;;;51.53;29.25;;;8.30;99.90;;;;;;5057880;28;20052;-81
2021/11/20 00:47:06;;;;;;;62.13;34.55;;;7.80;99.90;;;;;;5057893;28;20025;-81
2021/11/20 00:49:32;;;;;;;59.17;30.98;;;7.80;99.90;;;;;;5058124;28;20389;-80
2021/11/20 00:51:58;;;;;;;52.67;29.50;;;7.70;99.90;;;;;;5053967;28;20093;-81
2021/11/20 00:54:25;;;;;;;51.28;28.67;;;7.70;99.90;;;;;;5058481;28;20061;-80
2021/11/20 00:56:51;;;;;;;52.33;27.98;;;7.70;99.90;;;;;;5055907;28;20505;-81
2021/11/20 00:59:17;;;;;;;51.28;27.85;;;7.70;99.90;;;;;;5057526;28;20082;-81
2021/11/20 01:01:53;;;;;;;52.50;29.30;;;7.70;99.90;;;;;;5057387;28;20044;-81
2021/11/20 01:04:20;;;;;;;51.42;28.42;;;7.80;99.90;;;;;;5056403;28;20089;-81
2021/11/20 01:06:47;;;;;;;52.67;28.65;;;7.70;99.90;;;;;;5053446;28;20561;-80
2021/11/20 01:09:16;;;;;;;56.90;29.35;;;8.00;99.90;;;;;;5059424;28;20108;-80
2021/11/20 01:11:47;;;;;;;54.00;29.42;;;7.70;99.90;;;;;;5057070;28;20079;-81
2021/11/20 01:14:14;;;;;;;93.53;46.50;;;7.80;99.90;;;;;;5057335;28;20390;-81
2021/11/20 01:16:41;;;;;;;71.47;37.15;;;7.80;99.90;;;;;;5056169;28;20036;-81
2021/11/20 01:19:07;;;;;;;70.93;37.63;;;7.80;99.90;;;;;;5053183;28;20104;-81
2021/11/20 01:21:34;;;;;;;56.25;29.67;;;7.80;99.90;;;;;;5055727;28;20144;-81
2021/11/20 01:24:00;;;;;;;52.38;28.08;;;8.00;99.90;;;;;;5058562;28;20496;-81
2021/11/20 01:26:26;;;;;;;52.85;27.83;;;7.80;99.90;;;;;;5057453;28;20029;-80
2021/11/20 01:28:54;;;;;;;52.55;27.02;;;7.80;99.90;;;;;;5057049;28;20040;-81
2021/11/20 01:31:23;;;;;;;53.05;28.15;;;7.70;99.90;;;;;;5056246;28;20028;-81
2021/11/20 01:33:49;;;;;;;55.50;28.98;;;7.70;99.90;;;;;;5053136;28;20442;-81
2021/11/20 01:36:18;;;;;;;47.42;26.15;;;7.70;99.90;;;;;;5058723;28;20056;-80
2021/11/20 01:38:45;;;;;;;51.10;27.70;;;7.70;99.90;;;;;;5056390;28;20039;-81
2021/11/20 01:41:11;;;;;;;48.40;26.55;;;7.80;99.90;;;;;;5056870;28;20021;-81
2021/11/20 01:43:37;;;;;;;53.33;28.13;;;7.80;99.90;;;;;;5057089;28;20028;-81
2021/11/20 01:46:11;;;;;;;54.22;27.35;;;7.70;99.90;;;;;;5054109;28;20036;-81
2021/11/20 01:49:23;;;;;;;67.72;34.20;;;8.00;99.90;;;;;;5053461;28;20029;-81
2021/11/20 01:52:00;;;;;;;61.40;32.85;;;7.70;99.90;;;;;;5006442;28;20026;-80
2021/11/20 01:54:31;;;;;;;66.28;32.78;;;7.70;99.90;;;;;;5004479;28;20042;-81
2021/11/20 01:57:18;;;;;;;56.92;28.48;;;7.60;99.90;;;;;;4994262;28;20049;-81
2021/11/20 02:00:02;;;;;;;60.10;28.50;;;7.50;99.90;;;;;;4993222;28;20161;-81
2021/11/20 02:02:40;;;;;;;62.78;29.33;;;7.80;99.90;;;;;;4994582;28;20498;-81
2021/11/20 02:05:26;;;;;;;62.22;29.05;;;7.60;99.90;;;;;;5004464;28;20140;-81
2021/11/20 02:08:16;;;;;;;54.40;27.52;;;7.70;99.90;;;;;;5013905;28;20434;-80
2021/11/20 02:10:57;;;;;;;65.47;30.50;;;7.70;99.90;;;;;;5014240;28;20042;-81
2021/11/20 02:13:27;;;;;;;63.90;29.83;;;7.70;99.90;;;;;;5014545;28;20409;-81
2021/11/20 02:16:15;;;;;;;63.13;29.92;;;7.50;99.90;;;;;;4994439;28;20148;-81
2021/11/20 02:18:45;;;;;;;64.30;29.45;;;7.60;99.90;;;;;;5024413;28;20025;-81
2021/11/20 02:21:33;;;;;;;62.75;29.20;;;7.80;99.90;;;;;;5016357;28;20033;-80
2021/11/20 02:23:59;;;;;;;61.80;30.38;;;7.60;99.90;;;;;;5075059;28;20028;-81
2021/11/20 02:26:24;;;;;;;70.10;30.85;;;7.60;99.90;;;;;;5076012;28;20040;-81
2021/11/20 02:28:51;;;;;;;91.38;41.42;;;7.60;99.90;;;;;;5075925;28;20035;-80
2021/11/20 02:31:17;;;;;;;63.33;31.02;;;8.10;99.90;;;;;;5074684;28;20032;-80
2021/11/20 02:33:45;;;;;;;66.15;30.80;;;7.60;99.90;;;;;;5073063;28;20033;-81
2021/11/20 02:36:16;;;;;;;61.38;30.50;;;7.60;99.90;;;;;;5076693;28;20055;-80
2021/11/20 02:38:44;;;;;;;60.22;29.05;;;7.60;99.90;;;;;;5074140;28;20048;-81
2021/11/20 02:41:13;;;;;;;71.35;32.65;;;7.50;99.90;;;;;;5075886;28;20376;-81
2021/11/20 02:43:41;;;;;;;63.10;30.02;;;7.70;99.90;;;;;;5076309;28;20036;-80
2021/11/20 02:46:12;;;;;;;70.78;30.80;;;7.60;99.90;;;;;;5073173;28;20025;-81
2021/11/20 02:48:38;;;;;;;65.97;31.02;;;7.60;99.90;;;;;;5073095;28;20031;-81
2021/11/20 02:51:16;;;;;;;66.20;30.70;;;7.60;99.90;;;;;;5075003;28;20047;-81
2021/11/20 02:54:10;;;;;;;68.88;30.92;;;7.50;99.90;;;;;;5075319;28;20477;-80
2021/11/20 02:56:40;;;;;;;68.45;31.13;;;7.40;99.90;;;;;;5066779;28;20036;-81
2021/11/20 02:59:06;;;;;;;62.92;29.92;;;7.40;99.90;;;;;;5075422;28;20033;-80
2021/11/20 03:01:35;;;;;;;70.68;32.08;;;7.50;99.90;;;;;;5074906;28;20119;-81
2021/11/20 03:04:02;;;;;;;70.47;31.90;;;7.40;99.90;;;;;;5070494;28;20031;-80
2021/11/20 03:06:28;;;;;;;69.53;32.10;;;7.40;99.90;;;;;;5055376;28;20036;-81
2021/11/20 03:08:54;;;;;;;65.43;30.27;;;7.40;99.90;;;;;;5055609;28;20024;-80
2021/11/20 03:11:20;;;;;;;65.80;30.85;;;7.50;99.90;;;;;;5055309;28;20040;-81
2021/11/20 03:13:52;;;;;;;63.95;29.92;;;7.50;99.90;;;;;;5053622;28;20037;-80
2021/11/20 03:16:18;;;;;;;71.60;30.90;;;7.50;99.90;;;;;;5052364;28;20033;-81
2021/11/20 03:18:44;;;;;;;65.20;29.77;;;7.50;99.90;;;;;;5051698;28;20512;-81
2021/11/20 03:21:10;;;;;;;88.60;40.85;;;7.50;99.90;;;;;;5056051;28;20104;-81
2021/11/20 03:23:41;;;;;;;61.15;30.00;;;7.80;99.90;;;;;;5054808;28;20033;-81
2021/11/20 03:26:07;;;;;;;64.50;30.58;;;7.80;99.90;;;;;;5055108;28;20394;-81
2021/11/20 03:28:33;;;;;;;61.53;30.13;;;7.80;99.90;;;;;;5055233;28;20025;-81
2021/11/20 03:31:00;;;;;;;60.38;29.20;;;7.40;99.90;;;;;;5050981;28;20040;-81
2021/11/20 03:33:25;;;;;;;63.10;28.77;;;7.30;99.90;;;;;;5055224;28;20491;-81
2021/11/20 03:35:51;;;;;;;61.78;28.95;;;7.40;99.90;;;;;;5053842;28;20025;-81
2021/11/20 03:38:17;;;;;;;56.83;28.52;;;7.60;99.90;;;;;;5054585;28;20117;-80
2021/11/20 03:40:44;;;;;;;60.45;29.15;;;7.40;99.90;;;;;;5054468;28;20115;-81
2021/11/20 03:43:10;;;;;;;53.58;26.88;;;7.60;99.90;;;;;;5052370;28;20029;-81
2021/11/20 03:45:38;;;;;;;54.47;27.73;;;7.40;99.90;;;;;;5052570;28;20043;-80
2021/11/20 03:48:06;;;;;;;59.45;29.38;;;7.40;99.90;;;;;;5054901;28;20029;-81
2021/11/20 03:50:32;;;;;;;60.72;29.20;;;7.80;99.90;;;;;;5054162;28;20151;-81
2021/11/20 03:52:58;;;;;;;54.20;27.65;;;7.40;99.90;;;;;;5052904;28;20017;-81
2021/11/20 03:55:29;;;;;;;67.78;32.05;;;7.40;99.90;;;;;;5052602;28;20047;-81
2021/11/20 03:57:55;;;;;;;59.90;28.83;;;7.60;99.90;;;;;;5032809;28;20013;-80
2021/11/20 04:00:23;;;;;;;55.38;27.55;;;7.30;99.90;;;;;;5056521;28;20024;-80
2021/11/20 04:02:50;;;;;;;71.55;33.78;;;7.40;99.90;;;;;;5052237;28;20413;-81
2021/11/20 04:05:18;;;;;;;62.25;29.98;;;7.30;99.90;;;;;;5053986;28;20041;-80
2021/11/20 04:07:44;;;;;;;55.72;27.38;;;7.40;99.90;;;;;;5054183;28;20599;-81
2021/11/20 04:10:17;;;;;;;69.22;33.80;;;7.40;99.90;;;;;;5051379;28;20108;-81
2021/11/20 04:12:43;;;;;;;78.07;38.75;;;7.40;99.90;;;;;;5050942;28;20483;-81
2021/11/20 04:15:11;;;;;;;62.13;30.27;;;7.40;99.90;;;;;;5048666;28;20057;-80
2021/11/20 04:17:37;;;;;;;60.45;28.70;;;7.40;99.90;;;;;;5053374;28;20573;-80
2021/11/20 04:20:09;;;;;;;60.38;28.40;;;7.40;99.90;;;;;;5054066;28;20029;-81
2021/11/20 04:22:35;;;;;;;87.10;41.22;;;7.40;99.90;;;;;;5054000;28;20036;-80
2021/11/20 04:25:01;;;;;;;80.57;38.72;;;7.30;99.90;;;;;;5050419;28;20033;-80
2021/11/20 04:27:27;;;;;;;62.78;28.70;;;7.30;99.90;;;;;;5053913;28;20029;-81
2021/11/20 04:29:52;;;;;;;62.38;27.63;;;7.30;99.90;;;;;;5055266;28;20040;-80
2021/11/20 04:32:18;;;;;;;58.92;26.80;;;7.40;99.90;;;;;;5052142;28;20040;-81
2021/11/20 04:34:43;;;;;;;56.47;26.80;;;7.60;99.90;;;;;;5052302;28;20401;-81
2021/11/20 04:37:09;;;;;;;54.25;25.88;;;7.30;99.90;;;;;;5051114;28;20032;-80
2021/11/20 04:39:35;;;;;;;58.95;26.50;;;7.80;99.90;;;;;;5052729;28;20512;-81
2021/11/20 04:42:01;;;;;;;55.17;26.10;;;7.30;99.90;;;;;;5055017;28;20400;-81
2021/11/20 04:44:27;;;;;;;58.15;26.98;;;7.30;99.90;;;;;;5053615;28;20033;-81
2021/11/20 04:46:53;;;;;;;59.28;28.35;;;7.30;99.90;;;;;;5053333;28;20044;-81
2021/11/20 04:49:18;;;;;;;61.40;28.13;;;7.50;99.90;;;;;;5053336;28;20036;-81
2021/11/20 04:51:44;;;;;;;53.50;25.77;;;7.70;99.90;;;;;;5050125;28;20063;-81
2021/11/20 04:54:10;;;;;;;63.15;27.20;;;7.20;99.90;;;;;;5055684;28;20053;-80
2021/11/20 04:56:35;;;;;;;66.72;27.10;;;7.60;99.90;;;;;;5053278;28;20112;-81
2021/11/20 04:59:02;;;;;;;74.05;37.15;;;7.20;99.90;;;;;;5053867;28;20036;-81
2021/11/20 05:01:27;;;;;;;61.33;28.48;;;7.10;99.90;;;;;;5053511;28;20109;-81
2021/11/20 05:03:54;;;;;;;66.72;25.90;;;7.20;99.90;;;;;;5049116;28;20083;-81
2021/11/20 05:06:24;;;;;;;59.47;26.58;;;7.40;99.90;;;;;;5075724;28;20090;-81
2021/11/20 05:08:51;;;;;;;59.75;27.55;;;7.20;99.90;;;;;;5072438;28;20033;-81
2021/11/20 05:11:17;;;;;;;55.88;25.83;;;7.20;99.90;;;;;;5071717;28;20111;-81
2021/11/20 05:13:44;;;;;;;56.92;27.67;;;7.80;99.90;;;;;;5072242;28;20528;-81
2021/11/20 05:16:10;;;;;;;60.80;26.75;;;7.30;99.90;;;;;;5071682;28;20051;-81
2021/11/20 05:18:38;;;;;;;56.50;28.48;;;7.00;99.90;;;;;;5071135;28;20473;-80
2021/11/20 05:21:04;;;;;;;61.53;27.63;;;7.00;99.90;;;;;;5073279;28;20042;-81
2021/11/20 05:23:32;;;;;;;59.40;27.77;;;7.30;99.90;;;;;;5076252;28;20407;-80
2021/11/20 05:25:58;;;;;;;55.55;27.17;;;6.80;99.90;;;;;;5077302;28;20447;-80
2021/11/20 05:28:24;;;;;;;56.13;26.15;;;6.70;99.90;;;;;;5076997;28;20366;-80
2021/11/20 05:30:51;;;;;;;54.28;26.10;;;7.00;99.90;;;;;;5056103;28;20025;-80
2021/11/20 05:33:32;;;;;;;53.10;26.50;;;6.90;99.90;;;;;;5079279;28;20025;-80
2021/11/20 05:35:58;;;;;;;55.78;27.67;;;6.60;99.90;;;;;;5067443;28;20397;-81
2021/11/20 05:38:24;;;;;;;51.47;25.80;;;6.50;99.90;;;;;;5077198;28;20029;-81
2021/11/20 05:40:50;;;;;;;54.53;26.25;;;6.70;99.90;;;;;;5076688;28;20025;-81
2021/11/20 05:43:19;;;;;;;51.15;25.83;;;6.60;99.90;;;;;;5075508;28;20072;-81
2021/11/20 05:45:49;;;;;;;52.60;26.48;;;6.50;99.90;;;;;;5073138;28;20024;-81
2021/11/20 05:48:15;;;;;;;47.67;24.23;;;6.40;99.90;;;;;;5078734;28;20025;-80
2021/11/20 05:50:42;;;;;;;51.95;26.17;;;6.50;99.90;;;;;;5075110;28;20171;-81
2021/11/20 05:53:14;;;;;;;55.28;26.65;;;6.60;99.90;;;;;;5075120;28;20028;-81
2021/11/20 05:55:40;;;;;;;54.70;26.90;;;6.40;99.90;;;;;;5076339;28;20472;-81
2021/11/20 05:58:07;;;;;;;54.58;26.25;;;6.80;99.90;;;;;;5074144;28;20020;-81
2021/11/20 06:00:35;;;;;;;54.38;26.55;;;6.40;99.90;;;;;;5075324;28;20066;-81
2021/11/20 06:03:02;;;;;;;46.13;23.80;;;6.30;99.90;;;;;;5078637;28;20401;-81
2021/11/20 06:05:30;;;;;;;52.47;25.60;;;6.40;99.90;;;;;;5076186;28;20050;-81
2021/11/20 06:07:56;;;;;;;50.30;24.67;;;6.80;99.90;;;;;;5076619;28;20033;-81
2021/11/20 06:10:22;;;;;;;54.00;26.10;;;6.50;99.90;;;;;;5076273;28;20039;-81
2021/11/20 06:12:47;;;;;;;51.80;25.80;;;6.50;99.90;;;;;;5072043;28;20111;-80
2021/11/20 06:15:14;;;;;;;47.40;23.73;;;6.90;99.90;;;;;;5078253;28;20207;-80
2021/11/20 06:17:40;;;;;;;48.38;25.08;;;6.40;99.90;;;;;;5076384;28;20028;-81
2021/11/20 06:20:07;;;;;;;48.40;24.35;;;6.40;99.90;;;;;;5075926;28;20044;-81
2021/11/20 06:22:33;;;;;;;49.40;24.80;;;6.50;99.90;;;;;;5076282;28;20040;-81
2021/11/20 06:24:59;;;;;;;48.53;24.48;;;6.60;99.90;;;;;;5072118;28;20029;-81
2021/11/20 06:27:25;;;;;;;47.33;24.95;;;6.60;99.90;;;;;;5076712;28;20032;-81
2021/11/20 06:29:51;;;;;;;48.97;25.38;;;6.70;99.90;;;;;;5073769;28;20031;-81
2021/11/20 06:32:17;;;;;;;49.28;23.73;;;7.20;99.90;;;;;;5074210;28;20029;-81
2021/11/20 06:34:42;;;;;;;49.25;24.23;;;6.60;99.90;;;;;;5075731;28;20074;-81
2021/11/20 06:37:08;;;;;;;50.60;25.30;;;6.50;99.90;;;;;;5073900;28;20024;-81
2021/11/20 06:39:35;;;;;;;45.72;23.08;;;7.00;99.90;;;;;;5073725;28;20404;-81
2021/11/20 06:42:04;;;;;;;47.05;24.27;;;6.50;99.90;;;;;;5075141;28;20481;-80
2021/11/20 06:44:30;;;;;;;49.33;23.80;;;6.40;99.90;;;;;;5075780;28;20013;-80
2021/11/20 06:46:56;;;;;;;49.95;25.42;;;6.60;99.90;;;;;;5075434;28;20032;-80
2021/11/20 06:49:22;;;;;;;42.78;22.73;;;6.40;99.90;;;;;;5074391;28;20543;-81
2021/11/20 06:51:48;;;;;;;44.30;22.38;;;6.40;99.90;;;;;;5068389;28;20045;-81
2021/11/20 06:54:14;;;;;;;43.50;22.13;;;6.80;99.90;;;;;;5076714;28;20100;-80
2021/11/20 06:56:43;;;;;;;42.55;21.65;;;6.30;99.90;;;;;;5075168;28;20039;-85
2021/11/20 07:01:42;;;;;;;46.00;23.23;;;6.50;99.90;;;;;;5075114;28;20047;-84
2021/11/20 07:04:13;;;;;;;46.15;23.00;;;6.60;99.90;;;;;;5072850;28;20048;-82
2021/11/20 07:07:05;;;;;;;45.03;22.83;;;6.30;99.90;;;;;;5072999;28;20036;-85
2021/11/20 07:09:33;;;;;;;42.38;23.30;;;6.30;99.90;;;;;;5084742;28;20085;-82
2021/11/20 07:11:59;;;;;;;45.70;22.38;;;6.60;99.90;;;;;;5074417;28;20028;-81
2021/11/20 07:14:25;;;;;;;41.70;22.05;;;6.30;99.90;;;;;;5074782;28;20400;-81
2021/11/20 07:16:52;;;;;;;42.90;22.17;;;6.10;99.90;;;;;;5075363;28;20097;-82
2021/11/20 07:19:18;;;;;;;45.67;21.90;;;6.10;99.90;;;;;;5074223;28;20024;-81
2021/11/20 07:21:44;;;;;;;47.17;22.67;;;6.20;99.90;;;;;;5071185;28;20409;-82
2021/11/20 07:24:13;;;;;;;47.80;22.95;;;6.70;99.90;;;;;;5077030;28;20095;-82
2021/11/20 07:26:40;;;;;;;45.97;22.30;;;6.40;99.90;;;;;;5072405;28;20028;-82
2021/11/20 07:29:06;;;;;;;42.53;21.42;;;6.70;99.90;;;;;;5074777;28;20119;-82
2021/11/20 07:31:32;;;;;;;46.75;22.27;;;6.50;99.90;;;;;;5074664;28;20031;-82
2021/11/20 07:33:57;;;;;;;47.17;23.48;;;6.70;99.90;;;;;;5071279;28;20033;-82
2021/11/20 07:36:23;;;;;;;46.72;23.50;;;7.10;99.90;;;;;;5075685;28;20024;-82
2021/11/20 07:38:57;;;;;;;44.33;21.52;;;6.60;99.90;;;;;;5073096;28;20036;-82
2021/11/20 07:41:24;;;;;;;45.80;22.35;;;6.50;99.90;;;;;;5074061;28;20039;-82
2021/11/20 07:43:51;;;;;;;50.03;24.70;;;6.30;99.90;;;;;;5074565;28;20055;-82
2021/11/20 07:46:18;;;;;;;45.83;23.40;;;6.30;99.90;;;;;;5065856;28;20038;-82
2021/11/20 07:48:45;;;;;;;45.55;22.85;;;6.80;99.90;;;;;;5070454;28;20430;-82
2021/11/20 07:51:12;;;;;;;40.60;21.88;;;6.30;99.90;;;;;;5075864;28;20111;-81
2021/11/20 07:53:40;;;;;;;39.50;21.90;;;6.40;99.90;;;;;;5074280;28;20481;-82
2021/11/20 07:56:06;;;;;;;42.55;22.42;;;6.60;99.90;;;;;;5073826;28;20048;-82
2021/11/20 07:58:33;;;;;;;44.13;23.70;;;6.90;99.90;;;;;;5074313;28;20024;-82
2021/11/20 08:00:59;;;;;;;42.80;23.58;;;6.80;99.90;;;;;;5070413;28;20401;-82
2021/11/20 08:03:26;;;;;;;44.65;23.00;;;6.80;99.90;;;;;;5075062;28;20032;-82
2021/11/20 08:05:53;;;;;;;41.33;22.23;;;6.90;99.90;;;;;;5054341;28;20049;-82
2021/11/20 08:08:20;;;;;;;44.10;22.75;;;7.00;99.90;;;;;;5053907;28;20029;-82
2021/11/20 08:10:47;;;;;;;41.67;23.67;;;6.80;99.90;;;;;;5053933;28;20501;-82
2021/11/20 08:13:15;;;;;;;38.15;21.40;;;7.20;99.90;;;;;;5052723;28;20029;-82
2021/11/20 08:15:40;;;;;;;37.55;21.98;;;6.90;99.90;;;;;;5051174;28;20473;-82
2021/11/20 08:18:06;;;;;;;39.63;22.73;;;6.90;99.90;;;;;;5055857;28;20088;-82
2021/11/20 08:20:36;;;;;;;41.53;23.58;;;7.10;99.90;;;;;;5054113;28;20029;-82
2021/11/20 08:23:04;;;;;;;39.50;21.83;;;7.20;99.90;;;;;;5054260;28;20025;-81
2021/11/20 08:25:30;;;;;;;39.70;23.00;;;7.20;99.90;;;;;;5050656;28;20028;-81
2021/11/20 08:27:57;;;;;;;41.08;23.02;;;6.90;99.90;;;;;;5048426;28;20017;-82
2021/11/20 08:30:27;;;;;;;44.15;22.95;;;7.40;99.90;;;;;;5055167;28;20078;-82
2021/11/20 08:32:53;;;;;;;37.92;21.65;;;7.00;99.90;;;;;;5053386;28;20029;-82
2021/11/20 08:35:20;;;;;;;43.90;23.83;;;6.90;99.90;;;;;;5053783;28;20028;-83
2021/11/20 08:37:45;;;;;;;42.88;24.83;;;6.70;99.90;;;;;;5053699;28;20040;-81
2021/11/20 08:40:14;;;;;;;41.22;24.13;;;6.80;99.90;;;;;;5052104;28;20398;-82
2021/11/20 08:42:41;;;;;;;44.05;23.10;;;6.90;99.90;;;;;;5050988;28;20041;-80
2021/11/20 08:45:15;;;;;;;41.00;23.42;;;7.20;99.90;;;;;;5055950;28;20036;-85
2021/11/20 08:47:41;;;;;;;41.67;23.63;;;6.90;99.90;;;;;;5034509;28;20116;-86
2021/11/20 08:50:11;;;;;;;40.13;23.80;;;7.00;99.90;;;;;;5049704;28;20024;-85
2021/11/20 08:52:37;;;;;;;39.92;23.35;;;6.90;99.90;;;;;;5064305;28;20493;-86
2021/11/20 08:55:04;;;;;;;41.30;24.00;;;7.50;99.90;;;;;;5062999;28;20033;-86
2021/11/20 08:57:30;;;;;;;42.20;24.60;;;7.10;99.90;;;;;;5056293;28;20048;-84
2021/11/20 08:59:55;;;;;;;45.28;24.52;;;6.90;99.90;;;;;;5059013;28;20493;-85
2021/11/20 09:02:34;;;;;;;42.17;24.30;;;6.70;99.90;;;;;;5059048;28;20041;-85
2021/11/20 09:05:39;;;;;;;40.90;23.02;;;6.70;99.90;;;;;;5056125;28;20493;-86
2021/11/20 09:08:11;;;;;;;40.17;22.90;;;7.00;99.90;;;;;;5044940;28;20238;-85
2021/11/20 09:10:53;;;;;;;40.45;24.42;;;6.80;99.90;;;;;;5058241;28;20032;-85
2021/11/20 09:13:33;;;;;;;36.85;21.52;;;6.90;99.90;;;;;;5052310;28;20028;-86
2021/11/20 09:16:21;;;;;;;37.88;22.00;;;7.10;99.90;;;;;;5037240;28;20449;-85
2021/11/20 09:18:47;;;;;;;35.92;21.52;;;6.80;99.90;;;;;;5053613;28;20074;-85
2021/11/20 09:21:15;;;;;;;36.30;21.42;;;7.00;99.90;;;;;;5069875;28;20477;-84
2021/11/20 09:23:42;;;;;;;36.72;21.05;;;7.10;99.90;;;;;;5048708;28;20044;-87
2021/11/20 09:26:08;;;;;;;36.40;20.92;;;7.20;99.90;;;;;;5057581;28;20477;-84
2021/11/20 09:28:35;;;;;;;35.30;21.50;;;7.20;99.90;;;;;;5048673;28;20159;-85
2021/11/20 09:31:04;;;;;;;33.05;19.70;;;7.40;99.90;;;;;;5052807;28;20033;-85
2021/11/20 09:33:30;;;;;;;34.15;20.95;;;7.10;99.90;;;;;;5056411;28;20386;-86
2021/11/20 09:35:56;;;;;;;32.25;19.83;;;7.00;99.90;;;;;;5059194;28;20031;-86
2021/11/20 09:38:25;;;;;;;34.13;21.02;;;7.30;99.90;;;;;;5064107;28;20036;-86
2021/11/20 09:40:58;;;;;;;34.90;20.15;;;7.20;99.90;;;;;;5065476;28;20504;-86
2021/11/20 09:43:30;;;;;;;31.63;20.15;;;7.40;99.90;;;;;;5055140;28;20580;-86
2021/11/20 09:46:18;;;;;;;34.60;21.33;;;7.30;99.90;;;;;;5035889;28;20021;-83
2021/11/20 09:48:52;;;;;;;32.67;20.77;;;7.40;99.90;;;;;;5052878;28;20041;-85
2021/11/20 09:51:33;;;;;;;30.98;21.10;;;7.60;99.90;;;;;;5058235;28;20031;-85
2021/11/20 09:54:13;;;;;;;30.30;18.95;;;7.90;99.90;;;;;;5055411;28;20045;-82
2021/11/20 09:57:08;;;;;;;34.03;19.38;;;8.00;99.90;;;;;;5056365;28;20036;-82
2021/11/20 10:00:25;;;;;;;31.75;19.67;;;7.90;99.90;;;;;;4986475;28;20047;-82
2021/11/20 10:03:01;;;;;;;31.30;20.02;;;8.20;99.90;;;;;;4985332;28;20089;-82
2021/11/20 10:05:35;;;;;;;31.98;19.73;;;8.80;99.90;;;;;;4998663;28;20493;-82
2021/11/20 10:08:03;;;;;;;29.65;19.88;;;8.90;99.90;;;;;;5004940;28;20034;-82
2021/11/20 10:10:32;;;;;;;27.83;18.92;;;9.10;99.90;;;;;;5005808;28;20062;-82
2021/11/20 10:13:03;;;;;;;23.55;17.10;;;9.10;99.90;;;;;;5005861;28;20034;-82
2021/11/20 10:15:36;;;;;;;28.73;18.63;;;9.70;99.90;;;;;;5010419;28;20026;-82
2021/11/20 10:18:18;;;;;;;25.45;17.35;;;9.50;99.90;;;;;;5009092;28;20129;-82
2021/11/20 10:20:52;;;;;;;26.08;17.15;;;9.40;99.90;;;;;;5004928;28;20112;-82
2021/11/20 10:23:27;;;;;;;26.38;17.50;;;9.80;99.90;;;;;;5003939;28;20131;-82
2021/11/20 10:26:14;;;;;;;26.20;17.95;;;10.20;99.90;;;;;;5003733;28;20040;-82
2021/11/20 10:29:03;;;;;;;26.58;17.63;;;10.20;99.90;;;;;;5005316;28;20503;-81
2021/11/20 10:31:36;;;;;;;25.73;18.45;;;10.30;99.90;;;;;;5005016;28;20034;-82
2021/11/20 10:34:02;;;;;;;26.50;18.02;;;11.00;99.90;;;;;;5005652;28;20493;-81
2021/11/20 10:36:46;;;;;;;25.13;17.65;;;11.30;99.90;;;;;;5034406;28;20041;-82
2021/11/20 10:39:14;;;;;;;23.80;16.58;;;12.00;99.90;;;;;;5056427;28;20033;-81
2021/11/20 10:41:56;;;;;;;26.23;17.35;;;13.90;99.90;;;;;;5055617;28;20045;-82
2021/11/20 10:44:21;;;;;;;25.55;17.95;;;15.10;99.90;;;;;;5055599;28;20025;-82
2021/11/20 10:46:47;;;;;;;21.05;15.63;;;16.20;99.90;;;;;;5055730;28;20091;-82
2021/11/20 10:49:39;;;;;;;24.98;17.90;;;16.10;99.90;;;;;;5053335;28;20370;-82
2021/11/20 10:52:41;;;;;;;24.13;16.85;;;17.00;99.90;;;;;;5037022;28;20025;-82
2021/11/20 10:55:21;;;;;;;22.20;16.58;;;18.60;99.90;;;;;;5037928;28;20427;-82
2021/11/20 10:58:12;;;;;;;22.33;17.05;;;21.60;99.90;;;;;;5051875;28;20053;-82
2021/11/20 11:00:49;;;;;;;21.05;16.67;;;24.30;99.90;;;;;;5065704;28;20032;-82
2021/11/20 11:03:42;;;;;;;20.85;15.98;;;24.60;99.90;;;;;;5056699;28;20090;-82
2021/11/20 11:06:28;;;;;;;21.63;16.77;;;26.50;99.90;;;;;;5056939;28;20049;-85
2021/11/20 11:09:07;;;;;;;19.65;16.67;;;26.70;99.90;;;;;;5053407;28;20064;-87
2021/11/20 11:11:48;;;;;;;21.98;17.77;;;26.00;99.90;;;;;;5055219;28;20037;-87
2021/11/20 11:14:26;;;;;;;20.02;17.65;;;27.40;99.90;;;;;;5045245;28;20095;-89
2021/11/20 11:17:16;;;;;;;20.00;17.63;;;28.00;99.90;;;;;;5045313;28;20114;-89
2021/11/20 11:19:48;;;;;;;20.95;18.67;;;27.60;99.90;;;;;;5053821;28;20719;-87
2021/11/20 11:22:22;;;;;;;21.80;18.73;;;27.20;99.90;;;;;;5053047;28;20072;-88
2021/11/20 11:25:12;;;;;;;21.05;18.00;;;28.30;99.90;;;;;;5051063;28;20036;-87
2021/11/20 11:28:11;;;;;;;21.13;18.80;;;28.70;99.90;;;;;;5063104;28;20074;-87
2021/11/20 11:30:58;;;;;;;21.33;19.02;;;27.40;99.90;;;;;;5064309;28;20046;-87
2021/11/20 11:33:23;;;;;;;22.48;20.08;;;27.50;99.90;;;;;;5064665;28;20036;-81
2021/11/20 11:36:02;;;;;;;20.42;18.33;;;26.90;99.90;;;;;;5054683;28;20025;-86
2021/11/20 11:39:04;;;;;;;21.70;19.10;;;28.00;99.90;;;;;;5042609;28;20120;-83
2021/11/20 11:41:45;;;;;;;21.52;18.88;;;28.50;99.90;;;;;;5052950;28;20119;-82
2021/11/20 11:44:27;;;;;;;21.55;19.20;;;27.20;99.90;;;;;;5042520;28;20390;-82
2021/11/20 11:46:59;;;;;;;21.17;18.98;;;28.00;99.90;;;;;;5053678;28;20029;-81
2021/11/20 11:49:52;;;;;;;21.58;19.27;;;28.20;99.90;;;;;;5048000;28;20059;-81
2021/11/20 11:52:21;;;;;;;21.38;19.17;;;29.10;99.90;;;;;;5039884;28;20036;-85
2021/11/20 11:55:17;;;;;;;23.65;19.02;;;29.00;99.90;;;;;;5050791;28;20021;-87
2021/11/20 11:58:07;;;;;;;22.35;19.42;;;28.90;99.90;;;;;;5064637;28;20028;-80
2021/11/20 12:00:41;;;;;;;23.33;20.38;;;27.90;99.90;;;;;;5064318;28;20029;-80
2021/11/20 12:03:45;;;;;;;21.77;19.48;;;28.30;99.90;;;;;;5053746;28;20033;-81
2021/11/20 12:06:31;;;;;;;22.00;19.55;;;29.00;99.90;;;;;;5054668;28;20056;-81
2021/11/20 12:09:06;;;;;;;23.13;19.67;;;28.30;99.90;;;;;;5052214;28;20517;-80
2021/11/20 12:11:38;;;;;;;23.35;20.15;;;28.30;99.90;;;;;;5053534;28;20025;-81
2021/11/20 12:14:13;;;;;;;23.00;20.50;;;28.10;99.90;;;;;;5053948;28;20029;-80
2021/11/20 12:16:57;;;;;;;23.77;21.20;;;27.90;99.90;;;;;;5053614;28;20550;-81
2021/11/20 12:19:43;;;;;;;23.20;20.60;;;26.90;99.90;;;;;;5051604;28;20029;-80
2021/11/20 12:22:32;;;;;;;22.52;20.13;;;27.20;99.90;;;;;;5037715;28;20390;-81
2021/11/20 12:25:00;;;;;;;23.17;20.77;;;27.60;99.90;;;;;;5033123;28;20436;-81
2021/11/20 12:27:35;;;;;;;22.20;19.90;;;27.50;99.90;;;;;;5054137;28;20060;-81
2021/11/20 12:30:29;;;;;;;22.48;20.00;;;27.70;99.90;;;;;;5055160;28;20021;-82
2021/11/20 12:33:09;;;;;;;24.00;20.75;;;27.30;99.90;;;;;;5051639;28;20029;-83
2021/11/20 12:35:53;;;;;;;23.27;20.77;;;26.90;99.90;;;;;;5043727;28;20025;-82
2021/11/20 12:38:54;;;;;;;22.00;19.67;;;26.30;99.90;;;;;;5053732;28;20466;-83
2021/11/20 12:41:25;;;;;;;22.83;19.60;;;26.90;99.90;;;;;;5053437;28;20033;-82
2021/11/20 12:44:03;;;;;;;22.85;20.45;;;26.30;99.90;;;;;;5043728;28;20024;-83
2021/11/20 12:46:57;;;;;;;21.58;19.27;;;26.30;99.90;;;;;;5053848;28;20021;-83
2021/11/20 12:49:56;;;;;;;22.80;20.38;;;26.70;99.90;;;;;;5053901;28;20025;-83
2021/11/20 12:52:29;;;;;;;23.00;20.40;;;26.30;99.90;;;;;;5039255;28;20457;-83
2021/11/20 12:55:02;;;;;;;22.45;20.08;;;26.20;99.90;;;;;;5013189;28;20018;-82
2021/11/20 12:57:40;;;;;;;23.17;20.70;;;26.30;99.90;;;;;;5054027;28;20052;-82
2021/11/20 13:00:08;;;;;;;22.67;20.27;;;25.70;99.90;;;;;;5045930;28;20485;-83
2021/11/20 13:02:37;;;;;;;22.50;20.10;;;25.70;99.90;;;;;;5052011;28;20401;-82